sensor_id;sensor_type;location;lat;lon;timestamp;P1;durP1;ratioP1;P2;durP2;ratioP2
71343;SDS011;59146;43.850;25.948;2022-12-18T00:01:51;34.67;;;17.73;;
71343;SDS011;59146;43.850;25.948;2022-12-18T00:04:21;31.02;;;18.73;;
71343;SDS011;59146;43.850;25.948;2022-12-18T00:06:49;36.83;;;20.90;;
71343;SDS011;59146;43.850;25.948;2022-12-18T00:09:15;36.35;;;20.25;;
71343;SDS011;59146;43.850;25.948;2022-12-18T00:11:40;38.35;;;22.05;;
71343;SDS011;59146;43.850;25.948;2022-12-18T00:14:06;41.13;;;22.23;;
71343;SDS011;59146;43.850;25.948;2022-12-18T00:16:31;40.88;;;22.73;;
71343;SDS011;59146;43.850;25.948;2022-12-18T00:19:00;40.40;;;22.58;;
71343;SDS011;59146;43.850;25.948;2022-12-18T00:21:26;40.40;;;22.05;;
71343;SDS011;59146;43.850;25.948;2022-12-18T00:23:56;42.78;;;22.35;;
71343;SDS011;59146;43.850;25.948;2022-12-18T00:26:23;38.50;;;21.80;;
71343;SDS011;59146;43.850;25.948;2022-12-18T00:28:58;39.83;;;22.98;;
71343;SDS011;59146;43.850;25.948;2022-12-18T00:31:25;39.55;;;23.15;;
71343;SDS011;59146;43.850;25.948;2022-12-18T00:33:51;38.47;;;22.08;;
71343;SDS011;59146;43.850;25.948;2022-12-18T00:36:19;40.67;;;22.90;;
71343;SDS011;59146;43.850;25.948;2022-12-18T00:38:46;40.85;;;23.13;;
71343;SDS011;59146;43.850;25.948;2022-12-18T00:41:13;42.63;;;22.90;;
71343;SDS011;59146;43.850;25.948;2022-12-18T00:44:00;39.47;;;21.75;;
71343;SDS011;59146;43.850;25.948;2022-12-18T00:46:25;47.40;;;23.52;;
71343;SDS011;59146;43.850;25.948;2022-12-18T00:48:51;39.75;;;21.73;;
71343;SDS011;59146;43.850;25.948;2022-12-18T00:51:16;44.00;;;24.20;;
71343;SDS011;59146;43.850;25.948;2022-12-18T00:53:41;46.75;;;24.70;;
71343;SDS011;59146;43.850;25.948;2022-12-18T00:56:07;40.40;;;22.83;;
71343;SDS011;59146;43.850;25.948;2022-12-18T00:58:32;41.20;;;22.23;;
71343;SDS011;59146;43.850;25.948;2022-12-18T01:01:00;43.63;;;24.02;;
71343;SDS011;59146;43.850;25.948;2022-12-18T01:03:25;43.55;;;24.80;;
71343;SDS011;59146;43.850;25.948;2022-12-18T01:05:51;45.08;;;23.73;;
71343;SDS011;59146;43.850;25.948;2022-12-18T01:08:16;44.08;;;24.65;;
71343;SDS011;59146;43.850;25.948;2022-12-18T01:10:41;44.38;;;23.45;;
71343;SDS011;59146;43.850;25.948;2022-12-18T01:13:07;44.38;;;24.13;;
71343;SDS011;59146;43.850;25.948;2022-12-18T01:15:33;38.95;;;22.15;;
71343;SDS011;59146;43.850;25.948;2022-12-18T01:17:58;40.67;;;21.48;;
71343;SDS011;59146;43.850;25.948;2022-12-18T01:20:24;36.55;;;22.35;;
71343;SDS011;59146;43.850;25.948;2022-12-18T01:22:49;40.55;;;20.35;;
71343;SDS011;59146;43.850;25.948;2022-12-18T01:25:14;39.38;;;21.00;;
71343;SDS011;59146;43.850;25.948;2022-12-18T01:27:40;36.40;;;19.88;;
71343;SDS011;59146;43.850;25.948;2022-12-18T01:30:05;39.22;;;21.63;;
71343;SDS011;59146;43.850;25.948;2022-12-18T01:32:32;40.95;;;20.83;;
71343;SDS011;59146;43.850;25.948;2022-12-18T01:34:57;33.53;;;20.08;;
71343;SDS011;59146;43.850;25.948;2022-12-18T01:37:23;34.88;;;19.10;;
71343;SDS011;59146;43.850;25.948;2022-12-18T01:39:49;35.78;;;20.08;;
71343;SDS011;59146;43.850;25.948;2022-12-18T01:42:15;35.70;;;19.20;;
71343;SDS011;59146;43.850;25.948;2022-12-18T01:52:47;34.47;;;18.90;;
71343;SDS011;59146;43.850;25.948;2022-12-18T01:55:15;41.00;;;19.05;;
71343;SDS011;59146;43.850;25.948;2022-12-18T01:57:43;34.17;;;18.55;;
71343;SDS011;59146;43.850;25.948;2022-12-18T02:00:10;36.40;;;18.08;;
71343;SDS011;59146;43.850;25.948;2022-12-18T02:02:39;32.05;;;18.10;;
71343;SDS011;59146;43.850;25.948;2022-12-18T02:05:06;35.97;;;18.92;;
71343;SDS011;59146;43.850;25.948;2022-12-18T02:10:30;37.08;;;19.30;;
71343;SDS011;59146;43.850;25.948;2022-12-18T02:13:06;34.58;;;20.15;;
71343;SDS011;59146;43.850;25.948;2022-12-18T02:18:50;35.30;;;18.75;;
71343;SDS011;59146;43.850;25.948;2022-12-18T02:26:29;35.22;;;19.83;;
71343;SDS011;59146;43.850;25.948;2022-12-18T02:29:17;38.03;;;18.98;;
71343;SDS011;59146;43.850;25.948;2022-12-18T02:31:57;36.33;;;18.95;;
71343;SDS011;59146;43.850;25.948;2022-12-18T02:34:25;35.88;;;19.20;;
71343;SDS011;59146;43.850;25.948;2022-12-18T02:36:54;39.13;;;20.40;;
71343;SDS011;59146;43.850;25.948;2022-12-18T02:39:22;35.67;;;20.10;;
71343;SDS011;59146;43.850;25.948;2022-12-18T02:41:52;34.33;;;19.90;;
71343;SDS011;59146;43.850;25.948;2022-12-18T02:44:17;34.10;;;18.65;;
71343;SDS011;59146;43.850;25.948;2022-12-18T02:46:44;34.53;;;19.13;;
71343;SDS011;59146;43.850;25.948;2022-12-18T02:52:09;38.10;;;20.42;;
71343;SDS011;59146;43.850;25.948;2022-12-18T02:54:43;38.67;;;21.02;;
71343;SDS011;59146;43.850;25.948;2022-12-18T02:57:14;41.85;;;22.10;;
71343;SDS011;59146;43.850;25.948;2022-12-18T03:05:10;42.47;;;22.25;;
71343;SDS011;59146;43.850;25.948;2022-12-18T03:07:46;41.47;;;21.42;;
71343;SDS011;59146;43.850;25.948;2022-12-18T03:10:33;42.28;;;23.40;;
71343;SDS011;59146;43.850;25.948;2022-12-18T03:13:04;38.78;;;21.38;;
71343;SDS011;59146;43.850;25.948;2022-12-18T03:15:40;41.47;;;22.20;;
71343;SDS011;59146;43.850;25.948;2022-12-18T03:18:10;39.67;;;22.52;;
71343;SDS011;59146;43.850;25.948;2022-12-18T03:21:02;42.90;;;22.65;;
71343;SDS011;59146;43.850;25.948;2022-12-18T03:23:32;45.40;;;24.23;;
71343;SDS011;59146;43.850;25.948;2022-12-18T03:26:04;48.22;;;25.45;;
71343;SDS011;59146;43.850;25.948;2022-12-18T03:28:33;46.05;;;23.23;;
71343;SDS011;59146;43.850;25.948;2022-12-18T03:31:02;44.85;;;24.25;;
71343;SDS011;59146;43.850;25.948;2022-12-18T03:33:39;46.20;;;25.00;;
71343;SDS011;59146;43.850;25.948;2022-12-18T03:36:10;42.03;;;23.45;;
71343;SDS011;59146;43.850;25.948;2022-12-18T03:38:36;45.47;;;24.50;;
71343;SDS011;59146;43.850;25.948;2022-12-18T03:46:27;53.08;;;25.48;;
71343;SDS011;59146;43.850;25.948;2022-12-18T03:51:37;50.13;;;24.73;;
71343;SDS011;59146;43.850;25.948;2022-12-18T03:54:05;52.92;;;26.13;;
71343;SDS011;59146;43.850;25.948;2022-12-18T03:56:35;48.17;;;25.95;;
71343;SDS011;59146;43.850;25.948;2022-12-18T03:59:04;49.33;;;25.77;;
71343;SDS011;59146;43.850;25.948;2022-12-18T04:01:33;47.20;;;24.40;;
71343;SDS011;59146;43.850;25.948;2022-12-18T04:04:02;48.00;;;25.60;;
71343;SDS011;59146;43.850;25.948;2022-12-18T04:06:29;52.88;;;26.55;;
71343;SDS011;59146;43.850;25.948;2022-12-18T04:08:57;48.90;;;26.10;;
71343;SDS011;59146;43.850;25.948;2022-12-18T04:11:23;48.63;;;25.45;;
71343;SDS011;59146;43.850;25.948;2022-12-18T04:13:49;48.08;;;25.20;;
71343;SDS011;59146;43.850;25.948;2022-12-18T04:16:14;52.10;;;26.27;;
71343;SDS011;59146;43.850;25.948;2022-12-18T04:18:39;52.05;;;26.00;;
71343;SDS011;59146;43.850;25.948;2022-12-18T04:21:05;52.03;;;27.67;;
71343;SDS011;59146;43.850;25.948;2022-12-18T04:23:30;49.92;;;26.25;;
71343;SDS011;59146;43.850;25.948;2022-12-18T04:25:56;53.90;;;27.85;;
71343;SDS011;59146;43.850;25.948;2022-12-18T04:28:21;53.85;;;27.17;;
71343;SDS011;59146;43.850;25.948;2022-12-18T04:30:48;48.70;;;25.70;;
71343;SDS011;59146;43.850;25.948;2022-12-18T04:33:13;54.35;;;28.13;;
71343;SDS011;59146;43.850;25.948;2022-12-18T04:35:39;48.78;;;25.50;;
71343;SDS011;59146;43.850;25.948;2022-12-18T04:38:06;53.15;;;28.00;;
71343;SDS011;59146;43.850;25.948;2022-12-18T04:40:33;51.38;;;27.55;;
71343;SDS011;59146;43.850;25.948;2022-12-18T04:42:59;48.55;;;25.85;;
71343;SDS011;59146;43.850;25.948;2022-12-18T04:45:24;54.97;;;28.30;;
71343;SDS011;59146;43.850;25.948;2022-12-18T04:47:50;51.88;;;26.77;;
71343;SDS011;59146;43.850;25.948;2022-12-18T04:50:15;56.55;;;27.65;;
71343;SDS011;59146;43.850;25.948;2022-12-18T04:52:40;55.08;;;27.95;;
71343;SDS011;59146;43.850;25.948;2022-12-18T04:55:06;59.33;;;29.10;;
71343;SDS011;59146;43.850;25.948;2022-12-18T04:57:32;53.22;;;27.48;;
71343;SDS011;59146;43.850;25.948;2022-12-18T04:59:57;56.58;;;28.80;;
71343;SDS011;59146;43.850;25.948;2022-12-18T05:02:22;56.40;;;28.52;;
71343;SDS011;59146;43.850;25.948;2022-12-18T05:04:48;57.40;;;29.48;;
71343;SDS011;59146;43.850;25.948;2022-12-18T05:07:13;56.97;;;28.20;;
71343;SDS011;59146;43.850;25.948;2022-12-18T05:09:39;56.67;;;28.13;;
71343;SDS011;59146;43.850;25.948;2022-12-18T05:12:04;54.85;;;28.83;;
71343;SDS011;59146;43.850;25.948;2022-12-18T05:14:30;58.05;;;29.33;;
71343;SDS011;59146;43.850;25.948;2022-12-18T05:16:55;59.08;;;28.67;;
71343;SDS011;59146;43.850;25.948;2022-12-18T05:19:20;63.20;;;30.05;;
71343;SDS011;59146;43.850;25.948;2022-12-18T05:21:46;59.72;;;30.35;;
71343;SDS011;59146;43.850;25.948;2022-12-18T05:24:11;61.33;;;30.50;;
71343;SDS011;59146;43.850;25.948;2022-12-18T05:26:36;59.50;;;28.58;;
71343;SDS011;59146;43.850;25.948;2022-12-18T05:29:02;55.88;;;28.08;;
71343;SDS011;59146;43.850;25.948;2022-12-18T05:31:27;54.83;;;29.55;;
71343;SDS011;59146;43.850;25.948;2022-12-18T05:33:53;60.80;;;29.13;;
71343;SDS011;59146;43.850;25.948;2022-12-18T05:36:19;59.80;;;28.13;;
71343;SDS011;59146;43.850;25.948;2022-12-18T05:38:44;59.50;;;30.60;;
71343;SDS011;59146;43.850;25.948;2022-12-18T05:41:09;63.72;;;31.38;;
71343;SDS011;59146;43.850;25.948;2022-12-18T05:43:35;57.25;;;30.50;;
71343;SDS011;59146;43.850;25.948;2022-12-18T05:46:03;61.85;;;30.25;;
71343;SDS011;59146;43.850;25.948;2022-12-18T05:48:30;56.25;;;30.30;;
71343;SDS011;59146;43.850;25.948;2022-12-18T05:50:55;57.75;;;29.25;;
71343;SDS011;59146;43.850;25.948;2022-12-18T05:53:21;57.55;;;30.33;;
71343;SDS011;59146;43.850;25.948;2022-12-18T05:55:47;58.38;;;30.95;;
71343;SDS011;59146;43.850;25.948;2022-12-18T05:58:12;60.92;;;29.40;;
71343;SDS011;59146;43.850;25.948;2022-12-18T06:00:40;57.95;;;28.45;;
71343;SDS011;59146;43.850;25.948;2022-12-18T06:03:08;59.92;;;30.15;;
71343;SDS011;59146;43.850;25.948;2022-12-18T06:05:35;61.90;;;32.58;;
71343;SDS011;59146;43.850;25.948;2022-12-18T06:08:05;55.58;;;29.65;;
71343;SDS011;59146;43.850;25.948;2022-12-18T06:10:34;55.40;;;29.50;;
71343;SDS011;59146;43.850;25.948;2022-12-18T06:12:59;64.47;;;30.27;;
71343;SDS011;59146;43.850;25.948;2022-12-18T06:15:25;57.30;;;30.00;;
71343;SDS011;59146;43.850;25.948;2022-12-18T06:17:51;59.60;;;30.58;;
71343;SDS011;59146;43.850;25.948;2022-12-18T06:20:16;59.22;;;29.17;;
71343;SDS011;59146;43.850;25.948;2022-12-18T06:22:41;60.53;;;32.25;;
71343;SDS011;59146;43.850;25.948;2022-12-18T06:25:07;59.85;;;31.40;;
71343;SDS011;59146;43.850;25.948;2022-12-18T06:27:33;61.28;;;30.95;;
71343;SDS011;59146;43.850;25.948;2022-12-18T06:29:59;54.38;;;29.20;;
71343;SDS011;59146;43.850;25.948;2022-12-18T06:32:24;57.70;;;28.67;;
71343;SDS011;59146;43.850;25.948;2022-12-18T06:34:50;58.50;;;29.13;;
71343;SDS011;59146;43.850;25.948;2022-12-18T06:37:15;62.40;;;30.55;;
71343;SDS011;59146;43.850;25.948;2022-12-18T06:39:41;60.08;;;30.85;;
71343;SDS011;59146;43.850;25.948;2022-12-18T06:42:06;58.10;;;31.45;;
71343;SDS011;59146;43.850;25.948;2022-12-18T06:44:31;60.13;;;29.77;;
71343;SDS011;59146;43.850;25.948;2022-12-18T06:46:57;57.30;;;30.67;;
71343;SDS011;59146;43.850;25.948;2022-12-18T06:49:22;59.58;;;30.70;;
71343;SDS011;59146;43.850;25.948;2022-12-18T06:51:48;57.30;;;30.88;;
71343;SDS011;59146;43.850;25.948;2022-12-18T06:54:13;60.70;;;31.40;;
71343;SDS011;59146;43.850;25.948;2022-12-18T06:56:38;55.70;;;28.83;;
71343;SDS011;59146;43.850;25.948;2022-12-18T06:59:04;57.80;;;29.38;;
71343;SDS011;59146;43.850;25.948;2022-12-18T07:01:29;56.85;;;31.50;;
71343;SDS011;59146;43.850;25.948;2022-12-18T07:03:55;57.88;;;31.17;;
71343;SDS011;59146;43.850;25.948;2022-12-18T07:06:22;62.05;;;31.08;;
71343;SDS011;59146;43.850;25.948;2022-12-18T07:08:49;56.60;;;29.52;;
71343;SDS011;59146;43.850;25.948;2022-12-18T07:11:16;56.22;;;31.45;;
71343;SDS011;59146;43.850;25.948;2022-12-18T07:13:42;53.47;;;29.08;;
71343;SDS011;59146;43.850;25.948;2022-12-18T07:16:09;60.92;;;31.15;;
71343;SDS011;59146;43.850;25.948;2022-12-18T07:18:40;53.83;;;28.85;;
71343;SDS011;59146;43.850;25.948;2022-12-18T07:21:06;55.20;;;29.90;;
71343;SDS011;59146;43.850;25.948;2022-12-18T07:23:37;56.65;;;29.95;;
71343;SDS011;59146;43.850;25.948;2022-12-18T07:26:04;57.45;;;30.00;;
71343;SDS011;59146;43.850;25.948;2022-12-18T07:28:31;56.47;;;29.50;;
71343;SDS011;59146;43.850;25.948;2022-12-18T07:30:58;56.95;;;29.95;;
71343;SDS011;59146;43.850;25.948;2022-12-18T07:33:27;64.18;;;31.05;;
71343;SDS011;59146;43.850;25.948;2022-12-18T07:35:52;58.35;;;30.40;;
71343;SDS011;59146;43.850;25.948;2022-12-18T07:38:18;60.63;;;29.63;;
71343;SDS011;59146;43.850;25.948;2022-12-18T07:40:43;58.67;;;31.10;;
71343;SDS011;59146;43.850;25.948;2022-12-18T07:43:08;59.15;;;31.02;;
71343;SDS011;59146;43.850;25.948;2022-12-18T07:45:34;59.53;;;30.33;;
71343;SDS011;59146;43.850;25.948;2022-12-18T07:47:59;62.88;;;33.25;;
71343;SDS011;59146;43.850;25.948;2022-12-18T07:50:24;64.97;;;34.38;;
71343;SDS011;59146;43.850;25.948;2022-12-18T07:52:50;55.70;;;30.85;;
71343;SDS011;59146;43.850;25.948;2022-12-18T07:55:15;57.20;;;30.08;;
71343;SDS011;59146;43.850;25.948;2022-12-18T07:57:41;65.20;;;31.80;;
71343;SDS011;59146;43.850;25.948;2022-12-18T08:00:06;60.25;;;30.27;;
71343;SDS011;59146;43.850;25.948;2022-12-18T08:02:32;58.92;;;31.50;;
71343;SDS011;59146;43.850;25.948;2022-12-18T08:04:58;51.15;;;29.67;;
71343;SDS011;59146;43.850;25.948;2022-12-18T08:07:23;54.50;;;28.38;;
71343;SDS011;59146;43.850;25.948;2022-12-18T08:09:49;51.33;;;28.40;;
71343;SDS011;59146;43.850;25.948;2022-12-18T08:12:14;53.45;;;28.52;;
71343;SDS011;59146;43.850;25.948;2022-12-18T08:14:39;58.30;;;27.90;;
71343;SDS011;59146;43.850;25.948;2022-12-18T08:17:05;57.88;;;30.67;;
71343;SDS011;59146;43.850;25.948;2022-12-18T08:19:30;55.38;;;29.38;;
71343;SDS011;59146;43.850;25.948;2022-12-18T08:21:55;52.70;;;27.10;;
71343;SDS011;59146;43.850;25.948;2022-12-18T08:24:21;50.45;;;27.13;;
71343;SDS011;59146;43.850;25.948;2022-12-18T08:26:47;52.90;;;29.05;;
71343;SDS011;59146;43.850;25.948;2022-12-18T08:29:13;52.03;;;26.73;;
71343;SDS011;59146;43.850;25.948;2022-12-18T08:31:38;52.33;;;28.13;;
71343;SDS011;59146;43.850;25.948;2022-12-18T08:34:03;47.90;;;26.42;;
71343;SDS011;59146;43.850;25.948;2022-12-18T08:36:29;51.88;;;27.75;;
71343;SDS011;59146;43.850;25.948;2022-12-18T08:38:54;55.33;;;28.88;;
71343;SDS011;59146;43.850;25.948;2022-12-18T08:41:20;49.75;;;27.23;;
71343;SDS011;59146;43.850;25.948;2022-12-18T08:43:45;47.15;;;26.77;;
71343;SDS011;59146;43.850;25.948;2022-12-18T08:46:40;52.13;;;26.90;;
71343;SDS011;59146;43.850;25.948;2022-12-18T08:49:07;50.90;;;26.10;;
71343;SDS011;59146;43.850;25.948;2022-12-18T08:51:34;49.53;;;25.35;;
71343;SDS011;59146;43.850;25.948;2022-12-18T08:54:00;55.47;;;26.75;;
71343;SDS011;59146;43.850;25.948;2022-12-18T08:56:26;48.40;;;25.75;;
71343;SDS011;59146;43.850;25.948;2022-12-18T08:58:52;48.25;;;25.75;;
71343;SDS011;59146;43.850;25.948;2022-12-18T09:01:19;50.30;;;25.92;;
71343;SDS011;59146;43.850;25.948;2022-12-18T09:03:45;47.75;;;24.98;;
71343;SDS011;59146;43.850;25.948;2022-12-18T09:06:15;53.30;;;25.48;;
71343;SDS011;59146;43.850;25.948;2022-12-18T09:08:43;51.92;;;27.17;;
71343;SDS011;59146;43.850;25.948;2022-12-18T09:11:13;47.60;;;25.90;;
71343;SDS011;59146;43.850;25.948;2022-12-18T09:13:49;50.50;;;25.98;;
71343;SDS011;59146;43.850;25.948;2022-12-18T09:16:15;56.08;;;27.35;;
71343;SDS011;59146;43.850;25.948;2022-12-18T09:18:41;51.20;;;27.08;;
71343;SDS011;59146;43.850;25.948;2022-12-18T09:21:07;49.90;;;28.08;;
71343;SDS011;59146;43.850;25.948;2022-12-18T09:23:34;49.70;;;26.70;;
71343;SDS011;59146;43.850;25.948;2022-12-18T09:25:59;52.00;;;26.30;;
71343;SDS011;59146;43.850;25.948;2022-12-18T09:28:25;50.28;;;26.90;;
71343;SDS011;59146;43.850;25.948;2022-12-18T09:30:50;59.25;;;28.60;;
71343;SDS011;59146;43.850;25.948;2022-12-18T09:33:16;47.55;;;26.92;;
71343;SDS011;59146;43.850;25.948;2022-12-18T09:35:42;50.05;;;27.33;;
71343;SDS011;59146;43.850;25.948;2022-12-18T09:38:15;50.63;;;26.38;;
71343;SDS011;59146;43.850;25.948;2022-12-18T09:40:52;54.25;;;26.48;;
71343;SDS011;59146;43.850;25.948;2022-12-18T09:43:26;47.45;;;24.63;;
71343;SDS011;59146;43.850;25.948;2022-12-18T09:45:59;50.75;;;25.92;;
71343;SDS011;59146;43.850;25.948;2022-12-18T09:48:29;53.97;;;25.63;;
71343;SDS011;59146;43.850;25.948;2022-12-18T09:51:00;46.33;;;25.50;;
71343;SDS011;59146;43.850;25.948;2022-12-18T09:53:35;54.15;;;26.58;;
71343;SDS011;59146;43.850;25.948;2022-12-18T09:56:03;43.72;;;23.98;;
71343;SDS011;59146;43.850;25.948;2022-12-18T09:58:38;49.90;;;25.98;;
71343;SDS011;59146;43.850;25.948;2022-12-18T10:01:10;48.13;;;25.70;;
71343;SDS011;59146;43.850;25.948;2022-12-18T10:03:37;52.90;;;26.33;;
71343;SDS011;59146;43.850;25.948;2022-12-18T10:11:22;63.83;;;28.20;;
71343;SDS011;59146;43.850;25.948;2022-12-18T10:24:39;50.65;;;25.52;;
71343;SDS011;59146;43.850;25.948;2022-12-18T10:27:15;54.97;;;26.85;;
71343;SDS011;59146;43.850;25.948;2022-12-18T10:29:43;52.90;;;26.23;;
71343;SDS011;59146;43.850;25.948;2022-12-18T10:32:13;48.88;;;27.20;;
71343;SDS011;59146;43.850;25.948;2022-12-18T10:34:43;50.75;;;26.90;;
71343;SDS011;59146;43.850;25.948;2022-12-18T10:37:12;50.80;;;26.50;;
71343;SDS011;59146;43.850;25.948;2022-12-18T10:39:42;59.22;;;27.00;;
71343;SDS011;59146;43.850;25.948;2022-12-18T10:42:09;54.42;;;26.40;;
71343;SDS011;59146;43.850;25.948;2022-12-18T10:44:40;54.20;;;27.88;;
71343;SDS011;59146;43.850;25.948;2022-12-18T10:47:09;52.15;;;27.58;;
71343;SDS011;59146;43.850;25.948;2022-12-18T10:49:40;55.63;;;27.38;;
71343;SDS011;59146;43.850;25.948;2022-12-18T10:52:22;50.50;;;27.70;;
71343;SDS011;59146;43.850;25.948;2022-12-18T10:54:55;54.45;;;28.55;;
71343;SDS011;59146;43.850;25.948;2022-12-18T10:59:58;54.85;;;27.00;;
71343;SDS011;59146;43.850;25.948;2022-12-18T11:02:36;48.63;;;25.65;;
71343;SDS011;59146;43.850;25.948;2022-12-18T11:05:03;55.53;;;29.55;;
71343;SDS011;59146;43.850;25.948;2022-12-18T11:07:57;55.78;;;27.48;;
71343;SDS011;59146;43.850;25.948;2022-12-18T11:10:31;52.33;;;27.42;;
71343;SDS011;59146;43.850;25.948;2022-12-18T11:13:11;49.75;;;26.67;;
71343;SDS011;59146;43.850;25.948;2022-12-18T11:15:42;54.85;;;28.60;;
71343;SDS011;59146;43.850;25.948;2022-12-18T11:18:15;55.50;;;28.80;;
71343;SDS011;59146;43.850;25.948;2022-12-18T11:20:49;49.67;;;26.77;;
71343;SDS011;59146;43.850;25.948;2022-12-18T11:23:16;59.03;;;27.83;;
71343;SDS011;59146;43.850;25.948;2022-12-18T11:25:55;50.83;;;28.58;;
71343;SDS011;59146;43.850;25.948;2022-12-18T11:33:46;66.57;;;34.00;;
71343;SDS011;59146;43.850;25.948;2022-12-18T11:36:17;59.53;;;28.70;;
71343;SDS011;59146;43.850;25.948;2022-12-18T11:38:44;54.38;;;29.13;;
71343;SDS011;59146;43.850;25.948;2022-12-18T11:41:26;51.88;;;28.65;;
71343;SDS011;59146;43.850;25.948;2022-12-18T11:44:22;48.15;;;26.77;;
71343;SDS011;59146;43.850;25.948;2022-12-18T11:46:51;59.10;;;28.30;;
71343;SDS011;59146;43.850;25.948;2022-12-18T11:51:56;50.63;;;26.85;;
71343;SDS011;59146;43.850;25.948;2022-12-18T11:54:29;61.75;;;29.23;;
71343;SDS011;59146;43.850;25.948;2022-12-18T11:57:14;56.10;;;27.63;;
71343;SDS011;59146;43.850;25.948;2022-12-18T11:59:54;54.15;;;29.00;;
71343;SDS011;59146;43.850;25.948;2022-12-18T12:02:39;59.40;;;28.40;;
71343;SDS011;59146;43.850;25.948;2022-12-18T12:10:39;50.85;;;28.27;;
71343;SDS011;59146;43.850;25.948;2022-12-18T12:13:15;57.63;;;28.55;;
71343;SDS011;59146;43.850;25.948;2022-12-18T12:21:10;53.78;;;28.50;;
71343;SDS011;59146;43.850;25.948;2022-12-18T12:31:47;49.45;;;28.10;;
71343;SDS011;59146;43.850;25.948;2022-12-18T12:39:44;58.22;;;30.42;;
71343;SDS011;59146;43.850;25.948;2022-12-18T12:42:27;57.50;;;30.45;;
71343;SDS011;59146;43.850;25.948;2022-12-18T12:45:20;60.90;;;31.30;;
71343;SDS011;59146;43.850;25.948;2022-12-18T12:47:51;62.97;;;31.63;;
71343;SDS011;59146;43.850;25.948;2022-12-18T12:50:19;66.10;;;32.45;;
71343;SDS011;59146;43.850;25.948;2022-12-18T12:52:47;61.28;;;31.10;;
71343;SDS011;59146;43.850;25.948;2022-12-18T12:55:19;70.15;;;34.13;;
71343;SDS011;59146;43.850;25.948;2022-12-18T12:58:05;57.03;;;29.38;;
71343;SDS011;59146;43.850;25.948;2022-12-18T13:00:48;65.38;;;30.52;;
71343;SDS011;59146;43.850;25.948;2022-12-18T13:03:44;56.88;;;30.25;;
71343;SDS011;59146;43.850;25.948;2022-12-18T13:06:27;55.25;;;29.50;;
71343;SDS011;59146;43.850;25.948;2022-12-18T13:09:03;63.38;;;31.52;;
71343;SDS011;59146;43.850;25.948;2022-12-18T13:11:39;63.33;;;32.63;;
71343;SDS011;59146;43.850;25.948;2022-12-18T13:14:35;62.78;;;32.75;;
71343;SDS011;59146;43.850;25.948;2022-12-18T13:22:45;64.15;;;31.17;;
71343;SDS011;59146;43.850;25.948;2022-12-18T13:28:05;75.53;;;34.15;;
71343;SDS011;59146;43.850;25.948;2022-12-18T13:30:43;65.15;;;35.15;;
71343;SDS011;59146;43.850;25.948;2022-12-18T13:41:02;62.05;;;33.55;;
71343;SDS011;59146;43.850;25.948;2022-12-18T13:43:48;64.03;;;32.28;;
71343;SDS011;59146;43.850;25.948;2022-12-18T13:46:27;65.40;;;34.03;;
71343;SDS011;59146;43.850;25.948;2022-12-18T13:49:02;65.75;;;33.60;;
71343;SDS011;59146;43.850;25.948;2022-12-18T13:51:32;67.88;;;34.70;;
71343;SDS011;59146;43.850;25.948;2022-12-18T13:54:05;71.60;;;33.20;;
71343;SDS011;59146;43.850;25.948;2022-12-18T13:56:43;60.15;;;30.88;;
71343;SDS011;59146;43.850;25.948;2022-12-18T14:01:43;64.57;;;32.75;;
71343;SDS011;59146;43.850;25.948;2022-12-18T14:04:11;60.95;;;33.00;;
71343;SDS011;59146;43.850;25.948;2022-12-18T14:06:49;64.03;;;33.17;;
71343;SDS011;59146;43.850;25.948;2022-12-18T14:09:19;62.38;;;31.30;;
71343;SDS011;59146;43.850;25.948;2022-12-18T14:11:49;62.95;;;32.05;;
71343;SDS011;59146;43.850;25.948;2022-12-18T14:14:16;62.20;;;32.70;;
71343;SDS011;59146;43.850;25.948;2022-12-18T14:16:43;66.65;;;35.03;;
71343;SDS011;59146;43.850;25.948;2022-12-18T14:19:14;66.30;;;33.90;;
71343;SDS011;59146;43.850;25.948;2022-12-18T14:21:45;74.95;;;35.03;;
71343;SDS011;59146;43.850;25.948;2022-12-18T14:26:46;63.58;;;33.20;;
71343;SDS011;59146;43.850;25.948;2022-12-18T14:29:20;73.20;;;38.72;;
71343;SDS011;59146;43.850;25.948;2022-12-18T14:34:35;72.53;;;35.00;;
71343;SDS011;59146;43.850;25.948;2022-12-18T14:37:01;74.82;;;37.95;;
71343;SDS011;59146;43.850;25.948;2022-12-18T14:39:27;76.60;;;36.75;;
71343;SDS011;59146;43.850;25.948;2022-12-18T14:41:52;76.60;;;38.10;;
71343;SDS011;59146;43.850;25.948;2022-12-18T14:44:18;75.85;;;37.58;;
71343;SDS011;59146;43.850;25.948;2022-12-18T14:46:44;80.50;;;39.33;;
71343;SDS011;59146;43.850;25.948;2022-12-18T14:49:31;73.63;;;35.42;;
71343;SDS011;59146;43.850;25.948;2022-12-18T14:51:59;65.68;;;34.40;;
71343;SDS011;59146;43.850;25.948;2022-12-18T14:54:27;71.10;;;35.67;;
71343;SDS011;59146;43.850;25.948;2022-12-18T14:57:00;69.28;;;34.63;;
71343;SDS011;59146;43.850;25.948;2022-12-18T14:59:27;72.68;;;34.78;;
71343;SDS011;59146;43.850;25.948;2022-12-18T15:04:30;68.90;;;34.97;;
71343;SDS011;59146;43.850;25.948;2022-12-18T15:07:18;67.15;;;32.28;;
71343;SDS011;59146;43.850;25.948;2022-12-18T15:10:03;71.32;;;35.70;;
71343;SDS011;59146;43.850;25.948;2022-12-18T15:12:33;62.08;;;30.73;;
71343;SDS011;59146;43.850;25.948;2022-12-18T15:14:58;72.35;;;37.40;;
71343;SDS011;59146;43.850;25.948;2022-12-18T15:17:24;67.65;;;33.03;;
71343;SDS011;59146;43.850;25.948;2022-12-18T15:19:51;71.68;;;35.97;;
71343;SDS011;59146;43.850;25.948;2022-12-18T15:22:27;66.20;;;33.30;;
71343;SDS011;59146;43.850;25.948;2022-12-18T15:25:00;73.20;;;33.95;;
71343;SDS011;59146;43.850;25.948;2022-12-18T15:27:34;67.20;;;32.80;;
71343;SDS011;59146;43.850;25.948;2022-12-18T15:37:38;72.63;;;34.90;;
71343;SDS011;59146;43.850;25.948;2022-12-18T15:40:06;75.20;;;36.53;;
71343;SDS011;59146;43.850;25.948;2022-12-18T15:42:33;80.28;;;40.10;;
71343;SDS011;59146;43.850;25.948;2022-12-18T15:45:17;80.72;;;39.13;;
71343;SDS011;59146;43.850;25.948;2022-12-18T15:47:43;80.15;;;38.65;;
71343;SDS011;59146;43.850;25.948;2022-12-18T15:50:09;83.00;;;39.78;;
71343;SDS011;59146;43.850;25.948;2022-12-18T15:52:41;84.22;;;38.80;;
71343;SDS011;59146;43.850;25.948;2022-12-18T15:55:27;81.82;;;40.47;;
71343;SDS011;59146;43.850;25.948;2022-12-18T15:58:11;84.80;;;41.58;;
71343;SDS011;59146;43.850;25.948;2022-12-18T16:00:37;82.85;;;41.05;;
71343;SDS011;59146;43.850;25.948;2022-12-18T16:03:04;89.35;;;40.55;;
71343;SDS011;59146;43.850;25.948;2022-12-18T16:05:30;89.32;;;41.45;;
71343;SDS011;59146;43.850;25.948;2022-12-18T16:07:56;87.15;;;42.08;;
71343;SDS011;59146;43.850;25.948;2022-12-18T16:10:22;89.13;;;41.08;;
71343;SDS011;59146;43.850;25.948;2022-12-18T16:12:48;96.38;;;42.08;;
71343;SDS011;59146;43.850;25.948;2022-12-18T16:15:14;86.10;;;43.25;;
71343;SDS011;59146;43.850;25.948;2022-12-18T16:17:41;82.03;;;40.60;;
71343;SDS011;59146;43.850;25.948;2022-12-18T16:20:18;76.85;;;37.00;;
71343;SDS011;59146;43.850;25.948;2022-12-18T16:22:45;82.63;;;39.90;;